Time;durP1;ratioP1;P1;durP2;ratioP2;P2;SDS_P1;SDS_P2;PMS_P1;PMS_P2;Temp;Humidity;BMP_temperature;BMP_pressure;BME280_temperature;BME280_humidity;BME280_pressure;Samples;Min_cycle;Max_cycle;Signal;HPM_P1;HPM_P2
2022/04/20 00:01:27;;;;;;;;;;;6.00;99.90;;;;;;6176544;23;19959;-82
2022/04/20 00:03:53;;;;;;;;;;;6.00;99.90;;;;;;6175442;23;19987;-81
2022/04/20 00:06:18;;;;;;;;;;;6.00;99.90;;;;;;6172330;23;19904;-80
2022/04/20 00:08:44;;;;;;;;;;;5.90;99.90;;;;;;6200575;23;20267;-81
2022/04/20 00:11:09;;;;;;;;;;;5.90;99.90;;;;;;6198632;23;19923;-81
2022/04/20 00:13:35;;;;;;;;;;;5.90;99.90;;;;;;6171371;23;19926;-80
2022/04/20 00:16:01;;;;;;;;;;;5.90;99.90;;;;;;6170771;23;19904;-82
2022/04/20 00:18:26;;;;;;;;;;;5.90;99.90;;;;;;6172128;23;19904;-81
2022/04/20 00:20:52;;;;;;;;;;;5.90;99.90;;;;;;6197615;23;19912;-84
2022/04/20 00:23:17;;;;;;;;;;;5.90;99.90;;;;;;6198045;23;20234;-83
2022/04/20 00:25:43;;;;;;;;;;;5.90;99.90;;;;;;6200323;23;19982;-83
2022/04/20 00:28:13;;;;;;;;;;;5.30;99.90;;;;;;6175543;23;19920;-83
2022/04/20 00:30:39;;;;;;;;;;;2.60;99.90;;;;;;6172987;23;19908;-83
2022/04/20 00:33:05;;;;;;;;;;;5.90;99.90;;;;;;6198242;23;19919;-81
2022/04/20 00:35:55;;;;;;;;;;;5.90;99.90;;;;;;6172670;23;19915;-81
2022/04/20 00:38:23;;;;;;;;;;;5.90;99.90;;;;;;6167960;23;19919;-81
2022/04/20 00:40:50;;;;;;;;;;;5.80;99.90;;;;;;6198975;23;19928;-81
2022/04/20 00:43:21;;;;;;;;;;;5.80;99.90;;;;;;6198737;23;19908;-81
2022/04/20 00:45:49;;;;;;;;;;;6.00;99.90;;;;;;6172699;23;20363;-82
2022/04/20 00:48:15;;;;;;;;;;;5.50;99.90;;;;;;6176068;23;19955;-81
2022/04/20 00:50:41;;;;;;;;;;;5.80;99.90;;;;;;6202715;23;19905;-82
2022/04/20 00:53:07;;;;;;;;;;;5.70;99.90;;;;;;6178852;23;19912;-82
2022/04/20 00:55:52;;;;;;;;;;;5.80;99.90;;;;;;6210371;23;20426;-81
2022/04/20 00:58:18;;;;;;;;;;;5.70;99.90;;;;;;6184875;23;19927;-82
2022/04/20 01:01:07;;;;;;;;;;;3.60;99.90;;;;;;6208573;23;19910;-82
2022/04/20 01:03:36;;;;;;;;;;;5.10;99.90;;;;;;6207330;23;19915;-82
2022/04/20 01:06:01;;;;;;;;;;;7.40;99.90;;;;;;6147803;23;20184;-83
2022/04/20 01:08:28;;;;;;;;;;;5.90;99.90;;;;;;6208942;23;19910;-83
2022/04/20 01:10:54;;;;;;;;;;;6.10;99.90;;;;;;6205756;23;19904;-81
2022/04/20 01:13:23;;;;;;;;;;;5.60;99.90;;;;;;6231526;23;19914;-81
2022/04/20 01:15:52;;;;;;;;;;;6.90;99.90;;;;;;6206618;23;19904;-83
2022/04/20 01:18:17;;;;;;;;;;;5.70;99.90;;;;;;6228854;23;19930;-83
2022/04/20 01:20:43;;;;;;;;;;;5.60;99.90;;;;;;6200267;23;19935;-83
2022/04/20 01:23:21;;;;;;;;;;;5.60;99.90;;;;;;6231296;23;19927;-83
2022/04/20 01:25:47;;;;;;;;;;;5.60;99.90;;;;;;6205726;23;19908;-83
2022/04/20 01:28:15;;;;;;;;;;;5.60;99.90;;;;;;6232365;23;19944;-83
2022/04/20 01:30:47;;;;;;;;;;;5.50;99.90;;;;;;6233208;23;19903;-84
2022/04/20 01:33:20;;;;;;;;;;;5.60;99.90;;;;;;6202287;23;19934;-83
2022/04/20 01:35:47;;;;;;;;;;;6.80;99.90;;;;;;6230916;23;19942;-81
2022/04/20 01:38:13;;;;;;;;;;;4.70;99.90;;;;;;6231110;23;19904;-82
2022/04/20 01:41:06;;;;;;;;;;;5.60;99.90;;;;;;6225264;23;19935;-83
2022/04/20 01:43:40;;;;;;;;;;;5.40;99.90;;;;;;6142703;23;19968;-82
2022/04/20 01:46:17;;;;;;;;;;;7.30;99.90;;;;;;6144388;23;19904;-82
2022/04/20 01:49:03;;;;;;;;;;;5.90;99.90;;;;;;6182914;23;19979;-82
2022/04/20 01:54:39;;;;;;;;;;;3.70;99.90;;;;;;6241223;23;19912;-83
2022/04/20 01:57:05;;;;;;;;;;;5.10;99.90;;;;;;6233046;23;19903;-82
2022/04/20 01:59:34;;;;;;;;;;;6.20;99.90;;;;;;6200723;23;19907;-81
2022/04/20 02:04:44;;;;;;;;;;;5.80;99.90;;;;;;6202287;23;19932;-80
2022/04/20 02:07:09;;;;;;;;;;;5.40;99.90;;;;;;6193479;23;19912;-79
2022/04/20 02:09:35;;;;;;;;;;;5.40;99.90;;;;;;6166826;23;19930;-81
2022/04/20 02:12:00;;;;;;;;;;;5.40;99.90;;;;;;6165153;23;20109;-80
2022/04/20 02:14:27;;;;;;;;;;;5.40;99.90;;;;;;6172418;23;19939;-82
2022/04/20 02:16:53;;;;;;;;;;;5.40;99.90;;;;;;6203727;23;19892;-83
2022/04/20 02:19:18;;;;;;;;;;;5.40;99.90;;;;;;6207938;23;19895;-81
2022/04/20 02:21:45;;;;;;;;;;;5.40;99.90;;;;;;6206988;23;19908;-82
2022/04/20 02:24:11;;;;;;;;;;;5.40;99.90;;;;;;6180087;23;19916;-82
2022/04/20 02:26:53;;;;;;;;;;;5.30;99.90;;;;;;6201812;23;19892;-82
2022/04/20 02:29:28;;;;;;;;;;;5.50;99.90;;;;;;6169716;23;19904;-80
2022/04/20 02:32:03;;;;;;;;;;;5.10;99.90;;;;;;6229807;22;19904;-83
2022/04/20 02:34:29;;;;;;;;;;;5.70;99.90;;;;;;6239689;23;19914;-81
2022/04/20 02:36:54;;;;;;;;;;;5.10;99.90;;;;;;6227162;23;19928;-81
2022/04/20 02:39:20;;;;;;;;;;;5.10;99.90;;;;;;6231828;23;19908;-81
2022/04/20 02:41:45;;;;;;;;;;;4.80;99.90;;;;;;6238837;23;19892;-81
2022/04/20 02:44:12;;;;;;;;;;;4.70;99.90;;;;;;6240258;23;19895;-82
2022/04/20 02:46:37;;;;;;;;;;;4.60;99.90;;;;;;6239501;23;19908;-81
2022/04/20 02:49:04;;;;;;;;;;;4.50;99.90;;;;;;6238823;23;19931;-81
2022/04/20 02:51:30;;;;;;;;;;;4.60;99.90;;;;;;6214799;23;19910;-81
2022/04/20 02:54:00;;;;;;;;;;;4.50;99.90;;;;;;6216515;23;20199;-82
2022/04/20 02:56:25;;;;;;;;;;;4.50;99.90;;;;;;6234907;23;19892;-81
2022/04/20 02:58:51;;;;;;;;;;;4.50;99.90;;;;;;6233867;23;19911;-81
2022/04/20 03:01:21;;;;;;;;;;;4.50;99.90;;;;;;6237950;23;19912;-81
2022/04/20 03:03:49;;;;;;;;;;;4.40;99.90;;;;;;6237789;23;19915;-83
2022/04/20 03:06:18;;;;;;;;;;;4.40;99.90;;;;;;6235270;23;20116;-81
2022/04/20 03:08:44;;;;;;;;;;;4.30;99.90;;;;;;6206204;23;20017;-81
2022/04/20 03:11:12;;;;;;;;;;;4.20;99.90;;;;;;6209866;23;19912;-81
2022/04/20 03:13:39;;;;;;;;;;;4.10;99.90;;;;;;6207373;23;19923;-81
2022/04/20 03:16:04;;;;;;;;;;;4.00;99.90;;;;;;6234045;23;19962;-81
2022/04/20 03:18:32;;;;;;;;;;;4.00;99.90;;;;;;6235559;23;19908;-81
2022/04/20 03:21:01;;;;;;;;;;;4.00;99.90;;;;;;6206303;23;19916;-80
2022/04/20 03:23:28;;;;;;;;;;;4.00;99.90;;;;;;6209510;23;19948;-81
2022/04/20 03:25:54;;;;;;;;;;;4.00;99.90;;;;;;6234460;23;19904;-81
2022/04/20 03:28:33;;;;;;;;;;;4.10;99.90;;;;;;6234165;23;19914;-81
2022/04/20 03:31:04;;;;;;;;;;;4.10;99.90;;;;;;6234811;23;19908;-80
2022/04/20 03:33:42;;;;;;;;;;;4.10;99.90;;;;;;6207378;23;19911;-82
2022/04/20 03:36:07;;;;;;;;;;;4.10;99.90;;;;;;6237360;23;19951;-81
2022/04/20 03:38:35;;;;;;;;;;;4.00;99.90;;;;;;6234014;23;19916;-83
2022/04/20 03:41:05;;;;;;;;;;;4.10;99.90;;;;;;6181898;23;19927;-81
2022/04/20 03:43:32;;;;;;;;;;;4.10;99.90;;;;;;6234319;23;19892;-80
2022/04/20 03:46:05;;;;;;;;;;;4.10;99.90;;;;;;6234929;23;19915;-81
2022/04/20 03:48:34;;;;;;;;;;;4.20;99.90;;;;;;6208112;23;19924;-80
2022/04/20 03:51:01;;;;;;;;;;;4.10;99.90;;;;;;6233898;23;20315;-79
2022/04/20 03:53:33;;;;;;;;;;;4.10;99.90;;;;;;6235465;23;19946;-81
2022/04/20 03:56:06;;;;;;;;;;;4.10;99.90;;;;;;6206078;23;19904;-80
2022/04/20 03:58:33;;;;;;;;;;;4.10;99.90;;;;;;6233379;23;19923;-82
2022/04/20 04:00:59;;;;;;;;;;;4.10;99.90;;;;;;6205483;23;19904;-79
2022/04/20 04:03:24;;;;;;;;;;;4.00;99.90;;;;;;6233124;23;19904;-79
2022/04/20 04:05:52;;;;;;;;;;;4.10;99.90;;;;;;6233849;23;19940;-80
2022/04/20 04:08:20;;;;;;;;;;;4.00;99.90;;;;;;6207296;23;19911;-81
2022/04/20 04:10:46;;;;;;;;;;;4.00;99.90;;;;;;6230814;23;19914;-78
2022/04/20 04:13:11;;;;;;;;;;;4.00;99.90;;;;;;6206613;23;19936;-80
2022/04/20 04:15:38;;;;;;;;;;;3.90;99.90;;;;;;6234033;23;19911;-79
2022/04/20 04:18:04;;;;;;;;;;;3.80;99.90;;;;;;6233127;23;19899;-79
2022/04/20 04:20:32;;;;;;;;;;;3.70;99.90;;;;;;6234951;23;19912;-80
2022/04/20 04:22:57;;;;;;;;;;;3.70;99.90;;;;;;6234530;23;19904;-78
2022/04/20 04:25:23;;;;;;;;;;;3.70;99.90;;;;;;6236954;23;19928;-80
2022/04/20 04:27:57;;;;;;;;;;;3.70;99.90;;;;;;6237073;23;19908;-78
2022/04/20 04:30:23;;;;;;;;;;;5.70;99.90;;;;;;6236170;23;19931;-79
2022/04/20 04:32:48;;;;;;;;;;;3.70;99.90;;;;;;6206364;23;20335;-78
2022/04/20 04:35:14;;;;;;;;;;;3.70;99.90;;;;;;6207679;23;19904;-79
2022/04/20 04:37:39;;;;;;;;;;;3.70;99.90;;;;;;6210029;23;19912;-82
2022/04/20 04:40:06;;;;;;;;;;;3.60;99.90;;;;;;6205213;23;19915;-79
2022/04/20 04:42:31;;;;;;;;;;;3.30;99.90;;;;;;6201613;23;20264;-77
2022/04/20 04:48:36;;;;;;;;;;;3.60;99.90;;;;;;6199610;23;19904;-82
2022/04/20 04:50:26;;;;;;;;;;;3.40;99.90;;;;;;6208464;23;19919;-79
2022/04/20 04:52:53;;;;;;;;;;;3.40;99.90;;;;;;6206920;23;19920;-77
2022/04/20 04:55:19;;;;;;;;;;;3.30;99.90;;;;;;6205284;23;20295;-77
2022/04/20 04:57:45;;;;;;;;;;;3.20;99.90;;;;;;6205283;23;19908;-78
2022/04/20 05:00:12;;;;;;;;;;;3.20;99.90;;;;;;6204349;23;19908;-77
2022/04/20 05:02:37;;;;;;;;;;;3.20;99.90;;;;;;6207173;23;19912;-78
2022/04/20 05:05:04;;;;;;;;;;;3.20;99.90;;;;;;6206588;23;19919;-77
2022/04/20 05:07:29;;;;;;;;;;;3.20;99.90;;;;;;6204663;23;20003;-77
2022/04/20 05:09:55;;;;;;;;;;;3.20;99.90;;;;;;6204349;23;19908;-78
2022/04/20 05:12:20;;;;;;;;;;;3.20;99.90;;;;;;6202958;23;19964;-77
2022/04/20 05:14:46;;;;;;;;;;;3.30;99.90;;;;;;6202883;23;19911;-78
2022/04/20 05:17:12;;;;;;;;;;;3.20;99.90;;;;;;6202608;23;19889;-76
2022/04/20 05:19:38;;;;;;;;;;;3.20;99.90;;;;;;6203737;23;19913;-77
2022/04/20 05:22:04;;;;;;;;;;;3.20;99.90;;;;;;6203218;23;19908;-77
2022/04/20 05:24:29;;;;;;;;;;;3.10;99.90;;;;;;6204760;23;19991;-78
2022/04/20 05:26:55;;;;;;;;;;;3.10;99.90;;;;;;6201386;23;19904;-77
2022/04/20 05:29:21;;;;;;;;;;;3.20;99.90;;;;;;6206309;23;19912;-77
2022/04/20 05:31:47;;;;;;;;;;;3.20;99.90;;;;;;6220377;23;19904;-77
2022/04/20 05:34:18;;;;;;;;;;;3.20;99.90;;;;;;6234648;23;19931;-78
2022/04/20 05:42:33;;;;;;;;;;;3.20;99.90;;;;;;6232859;23;19919;-77
2022/04/20 05:45:05;;;;;;;;;;;3.20;99.90;;;;;;6236177;23;19896;-79
2022/04/20 05:47:58;;;;;;;;;;;3.20;99.90;;;;;;6210446;23;19912;-78
2022/04/20 05:50:31;;;;;;;;;;;3.20;99.90;;;;;;6235555;23;19908;-79
2022/04/20 05:53:05;;;;;;;;;;;3.20;99.90;;;;;;6235908;23;19920;-78
2022/04/20 05:55:33;;;;;;;;;;;3.20;99.90;;;;;;6208434;23;19912;-79
2022/04/20 05:57:59;;;;;;;;;;;3.20;99.90;;;;;;6205868;23;19915;-78
2022/04/20 06:00:24;;;;;;;;;;;3.20;99.90;;;;;;6232422;23;19919;-78
2022/04/20 06:02:51;;;;;;;;;;;3.30;99.90;;;;;;6208530;23;19904;-77
2022/04/20 06:05:17;;;;;;;;;;;3.20;99.90;;;;;;6207753;23;19955;-78
2022/04/20 06:07:56;;;;;;;;;;;3.30;99.90;;;;;;6208366;23;19908;-79
2022/04/20 06:10:22;;;;;;;;;;;3.20;99.90;;;;;;6234470;23;19973;-80
2022/04/20 06:12:47;;;;;;;;;;;3.20;99.90;;;;;;6231751;23;19912;-77
2022/04/20 06:15:13;;;;;;;;;;;3.20;99.90;;;;;;6212528;23;19934;-77
2022/04/20 06:17:38;;;;;;;;;;;3.30;99.90;;;;;;6239295;23;19908;-78
2022/04/20 06:20:28;;;;;;;;;;;3.30;99.90;;;;;;6239747;23;19969;-78
2022/04/20 06:22:54;;;;;;;;;;;3.30;99.90;;;;;;6234964;23;19956;-78
2022/04/20 06:25:25;;;;;;;;;;;3.40;99.90;;;;;;6230555;23;20378;-77
2022/04/20 06:28:28;;;;;;;;;;;3.40;99.90;;;;;;6239978;23;19910;-77
2022/04/20 06:30:55;;;;;;;;;;;3.20;99.90;;;;;;6124469;23;19904;-78
2022/04/20 06:33:24;;;;;;;;;;;3.90;99.90;;;;;;6149854;23;19946;-76
2022/04/20 06:36:08;;;;;;;;;;;3.30;99.90;;;;;;6124924;23;19917;-78
2022/04/20 06:38:40;;;;;;;;;;;3.30;99.90;;;;;;6148971;23;19900;-78
2022/04/20 06:41:05;;;;;;;;;;;3.30;99.90;;;;;;6152548;23;19909;-77
2022/04/20 06:43:36;;;;;;;;;;;3.30;99.90;;;;;;6150038;23;19960;-77
2022/04/20 06:46:03;;;;;;;;;;;3.30;99.90;;;;;;6123852;23;19913;-77
2022/04/20 06:48:50;;;;;;;;;;;3.30;99.90;;;;;;6151616;23;19932;-83
2022/04/20 06:51:16;;;;;;;;;;;3.40;99.90;;;;;;6121115;23;19913;-81
2022/04/20 06:59:10;;;;;;;;;;;3.40;99.90;;;;;;6178341;23;19915;-80
2022/04/20 07:01:46;;;;;;;;;;;3.40;99.90;;;;;;6177041;23;20048;-80
2022/04/20 07:04:44;;;;;;;;;;;4.30;99.90;;;;;;6153129;23;19893;-79
2022/04/20 07:07:10;;;;;;;;;;;3.50;99.90;;;;;;6178355;23;20134;-80
2022/04/20 07:10:02;;;;;;;;;;;3.60;99.90;;;;;;6177263;23;19913;-79
2022/04/20 07:12:28;;;;;;;;;;;3.60;99.90;;;;;;6172568;23;19916;-79
2022/04/20 07:14:53;;;;;;;;;;;3.60;99.90;;;;;;6177347;23;20238;-82
2022/04/20 07:17:22;;;;;;;;;;;3.70;99.90;;;;;;6175636;23;19917;-82
2022/04/20 07:20:06;;;;;;;;;;;3.70;99.90;;;;;;6174909;23;19889;-79
2022/04/20 07:22:31;;;;;;;;;;;3.70;99.90;;;;;;6184646;23;20326;-80
2022/04/20 07:24:58;;;;;;;;;;;3.90;99.90;;;;;;6209913;23;19963;-78
2022/04/20 07:27:27;;;;;;;;;;;3.10;99.90;;;;;;6211032;23;19893;-78
2022/04/20 07:30:12;;;;;;;;;;;4.10;99.90;;;;;;6210666;23;19936;-78
2022/04/20 07:32:38;;;;;;;;;;;4.10;99.90;;;;;;6223670;23;20342;-78
2022/04/20 07:35:09;;;;;;;;;;;4.60;99.90;;;;;;6215013;23;19903;-78
2022/04/20 07:37:48;;;;;;;;;;;4.30;99.90;;;;;;6241078;23;19919;-78
2022/04/20 07:40:17;;;;;;;;;;;4.40;99.90;;;;;;6216751;23;19930;-79
2022/04/20 07:42:45;;;;;;;;;;;4.50;99.90;;;;;;6241713;23;19895;-78
2022/04/20 07:45:11;;;;;;;;;;;4.60;99.90;;;;;;6241840;23;19916;-78
2022/04/20 07:47:37;;;;;;;;;;;4.80;99.90;;;;;;6243427;23;19943;-80
2022/04/20 07:50:18;;;;;;;;;;;4.90;99.90;;;;;;6244028;23;20248;-80
2022/04/20 07:53:03;;;;;;;;;;;4.80;99.90;;;;;;6217274;23;19916;-79
2022/04/20 08:27:34;;;;;;;;;;;6.10;99.90;;;;;;6229959;23;20308;-81
2022/04/20 08:30:00;;;;;;;;;;;6.50;99.90;;;;;;6208123;23;19904;-81
2022/04/20 08:32:32;;;;;;;;;;;6.20;99.70;;;;;;6238186;23;19911;-81
2022/04/20 08:34:57;;;;;;;;;;;5.80;99.90;;;;;;6239966;23;19900;-80
2022/04/20 08:37:23;;;;;;;;;;;5.70;99.90;;;;;;6241768;23;19923;-78
2022/04/20 08:39:49;;;;;;;;;;;5.80;99.90;;;;;;6215168;23;19908;-79
2022/04/20 08:42:17;;;;;;;;;;;6.00;99.80;;;;;;6241703;23;19892;-79
2022/04/20 08:44:44;;;;;;;;;;;6.30;99.90;;;;;;6217847;23;19904;-81
2022/04/20 08:48:01;;;;;;;;;;;;;;;;;;;;;
2022/04/20 08:50:34;;;;;;;;;;;8.60;99.00;;;;;;6211420;23;19904;-83
2022/04/20 09:03:59;;;;;;;;;;;8.10;98.00;;;;;;6212770;23;19908;-82
2022/04/20 09:07:18;;;;;;;;;;;8.50;97.30;;;;;;6204131;23;19912;-81
2022/04/20 09:10:03;;;;;;;;;;;8.60;96.70;;;;;;6137085;23;19904;-83
2022/04/20 09:12:28;;;;;;;;;;;8.60;95.80;;;;;;6187701;23;19912;-80
2022/04/20 09:18:58;;;;;;;;;;;8.30;96.00;;;;;;6154005;23;19900;-84
2022/04/20 09:24:12;;;;;;;;;;;7.90;95.70;;;;;;6242109;23;19995;-82
2022/04/20 09:26:51;;;;;;;;;;;6.40;95.60;;;;;;6211331;23;19904;-82
2022/04/20 09:29:16;;;;;;;;;;;5.80;95.60;;;;;;6235952;23;19895;-81
2022/04/20 09:31:43;;;;;;;;;;;7.60;96.50;;;;;;6213433;23;19908;-83
2022/04/20 09:34:33;;;;;;;;;;;7.80;97.30;;;;;;6212419;23;19899;-83
2022/04/20 09:37:17;;;;;;;;;;;7.60;97.50;;;;;;6198567;23;19904;-85
2022/04/20 09:39:46;;;;;;;;;;;7.90;98.20;;;;;;6180244;23;19908;-85
2022/04/20 09:42:12;;;;;;;;;;;8.20;98.10;;;;;;6205527;23;19930;-83
2022/04/20 09:45:00;;;;;;;;;;;7.40;97.80;;;;;;6202837;23;19904;-82
2022/04/20 09:50:10;;;;;;;;;;;7.60;98.00;;;;;;6197418;23;19922;-83
2022/04/20 09:55:12;;;;;;;;;;;8.30;97.90;;;;;;6175339;23;19923;-85
2022/04/20 10:05:24;;;;;;;;;;;8.70;97.00;;;;;;6091802;23;19916;-82
2022/04/20 10:10:29;;;;;;;;;;;8.80;94.60;;;;;;6185374;22;19920;-83
2022/04/20 10:24:31;;;;;;;;;;;9.90;92.40;;;;;;6196809;23;19921;-86
2022/04/20 10:27:32;;;;;;;;;;;9.80;91.90;;;;;;6181387;23;20006;-88
2022/04/20 10:30:45;;;;;;;;;;;9.70;92.40;;;;;;5974407;24;19923;-86
2022/04/20 10:33:43;;;;;;;;;;;9.90;92.30;;;;;;5978079;24;19923;-86
2022/04/20 10:36:18;;;;;;;;;;;12.80;93.20;;;;;;5976188;24;19911;-89
2022/04/20 10:39:37;;;;;;;;;;;9.40;93.30;;;;;;6006934;23;19895;-85
2022/04/20 10:43:01;;;;;;;;;;;9.40;93.40;;;;;;6035020;23;19931;-88
2022/04/20 10:45:27;;;;;;;;;;;9.80;94.20;;;;;;5997129;23;19911;-80
2022/04/20 10:47:55;;;;;;;;;;;9.10;94.20;;;;;;5975453;24;19955;-83
2022/04/20 10:50:25;;;;;;;;;;;10.00;94.30;;;;;;5987088;24;19913;-81
2022/04/20 11:00:36;;;;;;;;;;;8.20;94.00;;;;;;6211886;23;19904;-80
2022/04/20 11:03:15;;;;;;;;;;;9.00;96.20;;;;;;6187950;23;19900;-80
2022/04/20 11:27:34;;;;;;;;;;;10.10;92.40;;;;;;6185629;23;19926;-85
2022/04/20 11:29:59;;;;;;;;;;;10.30;91.70;;;;;;6164267;23;19908;-87
2022/04/20 11:35:33;;;;;;;;;;;10.60;91.10;;;;;;6199386;23;19916;-88
2022/04/20 11:38:01;;;;;;;;;;;11.20;90.90;;;;;;6157622;23;19925;-88
2022/04/20 11:40:27;;;;;;;;;;;11.10;90.10;;;;;;6175561;23;19936;-87
2022/04/20 11:43:17;;;;;;;;;;;11.30;88.60;;;;;;6145482;23;19905;-91
2022/04/20 11:46:08;;;;;;;;;;;11.40;85.60;;;;;;6171000;23;20635;-86
2022/04/20 11:48:35;;;;;;;;;;;12.50;90.00;;;;;;6145731;23;19908;-85
2022/04/20 11:51:01;;;;;;;;;;;12.90;84.40;;;;;;6108490;23;20094;-88
2022/04/20 11:53:34;;;;;;;;;;;12.90;79.80;;;;;;6107816;23;19971;-90
2022/04/20 11:56:00;;;;;;;;;;;13.10;80.70;;;;;;6108285;23;19939;-87
2022/04/20 11:58:32;;;;;;;;;;;13.00;81.00;;;;;;6108359;23;19988;-88
2022/04/20 12:00:58;;;;;;;;;;;12.80;82.70;;;;;;6107824;23;20022;-89
2022/04/20 12:03:40;;;;;;;;;;;12.80;84.10;;;;;;6107725;23;19905;-83
2022/04/20 12:06:09;;;;;;;;;;;12.70;83.40;;;;;;6108391;23;19905;-90
2022/04/20 12:08:41;;;;;;;;;;;11.90;80.40;;;;;;6108517;23;19905;-90
2022/04/20 12:11:08;;;;;;;;;;;13.00;79.00;;;;;;6083795;23;20752;-89
2022/04/20 12:13:34;;;;;;;;;;;9.70;74.70;;;;;;6123426;23;19901;-86
2022/04/20 12:16:00;;;;;;;;;;;12.60;78.10;;;;;;6131898;23;19987;-88
2022/04/20 12:18:27;;;;;;;;;;;12.70;78.90;;;;;;6143743;23;19912;-89
2022/04/20 12:20:56;;;;;;;;;;;13.00;75.00;;;;;;6197505;23;19896;-85
2022/04/20 12:23:32;;;;;;;;;;;11.30;69.40;;;;;;6194217;23;19916;-88
2022/04/20 12:25:58;;;;;;;;;;;13.30;72.60;;;;;;6191658;23;19990;-86
2022/04/20 12:28:44;;;;;;;;;;;13.30;70.50;;;;;;6183477;23;19911;-84
2022/04/20 12:31:12;;;;;;;;;;;13.40;68.90;;;;;;6186089;23;19940;-88
2022/04/20 12:33:41;;;;;;;;;;;13.40;69.50;;;;;;6178115;23;19904;-84
2022/04/20 12:36:20;;;;;;;;;;;13.80;70.90;;;;;;6145841;23;19900;-83
2022/04/20 12:38:52;;;;;;;;;;;12.40;69.90;;;;;;6146277;23;19928;-88
2022/04/20 12:41:36;;;;;;;;;;;13.70;65.20;;;;;;6145763;23;19911;-82
2022/04/20 12:44:03;;;;;;;;;;;14.70;68.10;;;;;;6170656;23;19908;-87
2022/04/20 12:46:34;;;;;;;;;;;15.20;61.20;;;;;;6172572;23;19908;-87
2022/04/20 12:49:00;;;;;;;;;;;16.10;62.60;;;;;;6169982;23;19909;-81
2022/04/20 12:51:26;;;;;;;;;;;17.10;60.90;;;;;;6168943;23;19920;-79
2022/04/20 12:53:52;;;;;;;;;;;18.10;56.70;;;;;;6169615;23;20500;-85
2022/04/20 13:04:30;;;;;;;;;;;20.10;49.30;;;;;;6168682;23;20102;-81
2022/04/20 13:06:56;;;;;;;;;;;20.90;47.50;;;;;;6169052;23;20327;-81
2022/04/20 13:09:27;;;;;;;;;;;21.20;44.60;;;;;;6169620;23;20351;-86
2022/04/20 13:11:53;;;;;;;;;;;19.70;43.40;;;;;;6142387;23;19912;-82
2022/04/20 13:14:19;;;;;;;;;;;20.10;46.20;;;;;;6170670;23;19916;-85
2022/04/20 13:16:44;;;;;;;;;;;19.00;46.40;;;;;;6169939;23;19995;-86
2022/04/20 13:19:10;;;;;;;;;;;18.10;47.50;;;;;;6169422;23;20539;-85
2022/04/20 13:21:36;;;;;;;;;;;17.20;48.90;;;;;;6169602;23;20369;-84
2022/04/20 13:24:07;;;;;;;;;;;16.90;50.10;;;;;;6169580;23;19919;-90
2022/04/20 13:29:17;;;;;;;;;;;15.90;54.10;;;;;;6169201;23;19965;-81
2022/04/20 13:31:44;;;;;;;;;;;15.70;54.00;;;;;;6168916;23;19994;-86
2022/04/20 13:34:10;;;;;;;;;;;15.50;52.40;;;;;;6142167;23;20390;-88
2022/04/20 13:36:35;;;;;;;;;;;15.90;52.40;;;;;;6168779;23;19967;-84
2022/04/20 13:39:01;;;;;;;;;;;16.70;49.20;;;;;;6168187;23;19904;-86
2022/04/20 13:41:27;;;;;;;;;;;16.90;47.60;;;;;;6168619;23;19916;-81
2022/04/20 13:43:53;;;;;;;;;;;17.30;46.30;;;;;;6143173;23;20367;-81
2022/04/20 13:46:18;;;;;;;;;;;17.20;46.00;;;;;;6169383;23;19908;-86
2022/04/20 13:48:44;;;;;;;;;;;17.60;46.70;;;;;;6169188;23;19987;-83
2022/04/20 13:51:10;;;;;;;;;;;16.90;46.20;;;;;;6168985;23;19912;-83
2022/04/20 13:53:35;;;;;;;;;;;17.20;46.60;;;;;;6169454;23;20572;-86
2022/04/20 13:56:01;;;;;;;;;;;16.30;46.20;;;;;;6170525;23;19908;-83
2022/04/20 13:58:26;;;;;;;;;;;16.30;46.60;;;;;;6169874;23;19909;-81
2022/04/20 14:00:52;;;;;;;;;;;16.30;46.60;;;;;;6168980;23;20124;-82
2022/04/20 14:03:18;;;;;;;;;;;15.60;45.10;;;;;;6170110;23;19908;-85
2022/04/20 14:05:43;;;;;;;;;;;17.40;45.10;;;;;;6169613;23;19920;-79
2022/04/20 14:08:09;;;;;;;;;;;18.20;44.80;;;;;;6168669;23;19905;-78
2022/04/20 14:10:35;;;;;;;;;;;19.10;43.50;;;;;;6169914;23;20190;-80
2022/04/20 14:13:01;;;;;;;;;;;19.30;43.20;;;;;;6169915;23;20146;-82
2022/04/20 14:15:28;;;;;;;;;;;20.10;43.10;;;;;;6141735;23;21340;-85
2022/04/20 14:17:55;;;;;;;;;;;21.20;41.80;;;;;;6168772;23;19995;-82
2022/04/20 14:20:21;;;;;;;;;;;20.60;39.00;;;;;;6168008;23;20035;-84
2022/04/20 14:22:46;;;;;;;;;;;19.80;37.90;;;;;;6168336;23;20513;-85
2022/04/20 14:33:26;;;;;;;;;;;22.20;38.00;;;;;;6168966;23;19943;-85
2022/04/20 14:35:52;;;;;;;;;;;22.30;38.10;;;;;;6168650;23;20335;-83
2022/04/20 14:38:18;;;;;;;;;;;22.20;37.40;;;;;;6142154;23;19912;-87
2022/04/20 14:40:50;;;;;;;;;;;22.70;37.90;;;;;;6168973;23;19904;-88
2022/04/20 14:43:16;;;;;;;;;;;22.50;37.80;;;;;;6173658;23;19991;-86
2022/04/20 14:45:49;;;;;;;;;;;22.80;36.40;;;;;;6193170;23;20359;-79
2022/04/20 14:48:14;;;;;;;;;;;23.70;36.30;;;;;;6173071;23;20218;-83
2022/04/20 14:50:40;;;;;;;;;;;22.60;35.70;;;;;;6171323;23;19951;-85
2022/04/20 14:53:06;;;;;;;;;;;22.70;36.50;;;;;;6171048;23;19916;-84
2022/04/20 14:55:38;;;;;;;;;;;22.40;36.10;;;;;;6183678;23;19954;-88
2022/04/20 14:58:04;;;;;;;;;;;22.00;37.00;;;;;;6170566;23;20175;-87
2022/04/20 15:00:30;;;;;;;;;;;21.90;37.70;;;;;;6197646;23;19923;-83
2022/04/20 15:02:56;;;;;;;;;;;22.10;36.40;;;;;;6182105;23;19912;-86
2022/04/20 15:05:28;;;;;;;;;;;21.90;37.80;;;;;;6178857;23;20138;-88
2022/04/20 15:07:55;;;;;;;;;;;21.60;38.40;;;;;;6154153;23;19911;-87
2022/04/20 15:10:20;;;;;;;;;;;21.60;35.20;;;;;;6156135;23;20374;-88
2022/04/20 15:12:48;;;;;;;;;;;21.60;36.50;;;;;;6183237;23;20184;-86
2022/04/20 15:15:15;;;;;;;;;;;21.60;37.00;;;;;;6152324;23;19904;-87
2022/04/20 15:17:40;;;;;;;;;;;21.60;36.60;;;;;;6171888;23;20310;-85
2022/04/20 15:20:06;;;;;;;;;;;21.50;35.80;;;;;;6142800;23;19963;-86
2022/04/20 15:22:32;;;;;;;;;;;21.40;36.10;;;;;;6144199;23;20122;-86
2022/04/20 15:24:58;;;;;;;;;;;21.30;36.90;;;;;;6171552;23;19901;-88
2022/04/20 15:27:24;;;;;;;;;;;21.40;36.20;;;;;;6145614;23;19908;-87
2022/04/20 15:29:52;;;;;;;;;;;22.30;37.50;;;;;;6171934;23;19920;-87
2022/04/20 15:32:18;;;;;;;;;;;21.80;36.30;;;;;;6145071;23;20098;-87
2022/04/20 15:34:52;;;;;;;;;;;21.80;37.20;;;;;;6173039;23;20399;-88
2022/04/20 15:37:18;;;;;;;;;;;21.80;36.90;;;;;;6175642;23;19904;-86
2022/04/20 15:39:47;;;;;;;;;;;21.50;36.00;;;;;;6154983;23;19911;-82
2022/04/20 15:42:13;;;;;;;;;;;21.50;36.40;;;;;;6179495;23;19911;-84
2022/04/20 15:44:38;;;;;;;;;;;21.10;36.40;;;;;;6180254;23;19905;-84
2022/04/20 15:47:04;;;;;;;;;;;20.90;37.20;;;;;;6177324;23;19915;-86
2022/04/20 15:49:30;;;;;;;;;;;20.80;36.90;;;;;;6175760;23;19940;-82
2022/04/20 15:51:55;;;;;;;;;;;20.60;38.00;;;;;;6150869;23;20355;-86
2022/04/20 15:54:31;;;;;;;;;;;21.00;38.10;;;;;;6175969;23;19915;-87
2022/04/20 16:02:25;;;;;;;;;;;21.60;36.40;;;;;;6172953;23;20165;-77
2022/04/20 16:04:50;;;;;;;;;;;21.50;37.00;;;;;;6172357;23;19904;-87
2022/04/20 16:07:16;;;;;;;;;;;19.90;36.40;;;;;;6144933;23;19991;-82
2022/04/20 16:09:44;;;;;;;;;;;21.40;36.70;;;;;;6171217;23;19908;-88
2022/04/20 16:12:10;;;;;;;;;;;21.70;37.20;;;;;;6172054;23;19908;-88
2022/04/20 16:14:36;;;;;;;;;;;21.50;36.20;;;;;;6145212;23;19915;-85
2022/04/20 16:17:02;;;;;;;;;;;21.50;37.30;;;;;;6171658;23;20042;-80
2022/04/20 16:19:29;;;;;;;;;;;21.30;37.80;;;;;;6174875;23;19970;-93
2022/04/20 16:21:56;;;;;;;;;;;21.20;38.60;;;;;;6176590;23;19912;-86
2022/04/20 16:24:22;;;;;;;;;;;21.30;38.50;;;;;;6153184;23;19931;-86
2022/04/20 16:26:48;;;;;;;;;;;21.10;38.60;;;;;;6174341;23;19911;-92
2022/04/20 16:29:16;;;;;;;;;;;20.80;39.20;;;;;;6176992;23;19912;-89
2022/04/20 16:31:42;;;;;;;;;;;20.70;39.40;;;;;;6151758;23;19908;-83
2022/04/20 16:34:07;;;;;;;;;;;20.20;39.50;;;;;;6180154;23;19908;-84
2022/04/20 16:36:34;;;;;;;;;;;20.00;40.10;;;;;;6152691;23;19988;-82
2022/04/20 16:39:00;;;;;;;;;;;19.50;40.80;;;;;;6176659;23;19983;-88
2022/04/20 16:41:26;;;;;;;;;;;19.10;41.90;;;;;;6178137;23;20379;-85
2022/04/20 16:43:51;;;;;;;;;;;18.50;42.70;;;;;;6146942;23;20355;-87
2022/04/20 16:46:17;;;;;;;;;;;18.00;43.70;;;;;;6173366;23;20379;-82
2022/04/20 16:48:42;;;;;;;;;;;17.40;44.50;;;;;;6169568;23;19909;-78
2022/04/20 16:51:09;;;;;;;;;;;18.10;46.20;;;;;;6173136;23;19912;-87
2022/04/20 16:53:36;;;;;;;;;;;17.50;47.30;;;;;;6173090;23;19905;-90
2022/04/20 16:56:04;;;;;;;;;;;15.70;47.60;;;;;;6147478;23;19911;-92
2022/04/20 16:58:30;;;;;;;;;;;15.10;48.70;;;;;;6173769;23;19938;-89
2022/04/20 17:00:56;;;;;;;;;;;14.60;50.70;;;;;;6174184;23;19908;-91
2022/04/20 17:03:28;;;;;;;;;;;14.30;51.60;;;;;;6174560;23;19916;-92
2022/04/20 17:06:02;;;;;;;;;;;14.10;52.90;;;;;;6186605;23;19909;-92
2022/04/20 17:08:28;;;;;;;;;;;11.80;53.80;;;;;;6151071;23;19907;-80
2022/04/20 17:10:54;;;;;;;;;;;13.20;55.40;;;;;;6173810;23;19935;-89
2022/04/20 17:13:19;;;;;;;;;;;12.90;56.50;;;;;;6151075;23;19905;-92
2022/04/20 17:15:46;;;;;;;;;;;14.50;59.50;;;;;;6178920;23;19939;-90